Language selection

My Weather Profile Weather Topics  | 

Resolution - eastern half: Past 24 Hour Conditions

 

Mary's Harbour

07:30 PM NST 05 February 2023
Disclaimer

This table is a summary of hourly weather conditions for the past 24 hours.
Please note that these observations might not always be representative of weather conditions over their associated marine area.

Date / Time
(NST)
Wind(knots) Conditions Visibility(km) Pressure(kPa) Air tempC) Relative humidity(%) Dew pointC) Wind Chill
05 February 2023
19:30 SSW 6 Cloudy 16 101.4 -16 54 -23 -23
18:30 SW 8 Cloudy 16 101.4 -16 51 -23 -24
17:30 SW 9 gust 17 Cloudy 16 101.4 -14 45 -24 -22
16:30 SW 8 Mostly Cloudy 16 101.3 -14 51 -22 -21
15:30 SW 9 Sunny 16 101.3 -12 40 -23 -20
14:30 SW 7 Sunny 16 101.2 -12 42 -22 -19
13:30 WSW 11 gust 17 Sunny 16 101.2 -13 39 -24 -22
12:30 W 10 gust 16 Sunny 16 101.2 -14 44 -24 -23
11:30 WSW 8 gust 15 Sunny 16 101.2 -16 50 -24 -24
10:30 WSW 8 Partly Cloudy 16 101.2 -16 56 -23 -25
9:30 WSW 7 Cloudy 16 101.1 -17 58 -23 -24
8:30 W 15 gust 25 Cloudy 16 100.9 -17 63 -23 -29
7:30 WNW 18 gust 25 Cloudy 16 100.6 -16 64 -21 -28
6:30 WNW 13 gust 23 Cloudy 16 100.5 -16 65 -21 -26
5:30 WNW 14 gust 26 Cloudy 16 100.3 -15 66 -20 -25
4:30 NW 17 gust 26 Light Snow 16 100.0 -13 68 -18 -24
3:30 NW 19 gust 31 Light Snow 4 99.7 -12 70 -17 -23
2:30 WNW 22 gust 33 Blowing Snow 4 99.3 -11 73 -15 -22
1:30 NW 23 gust 36 Blowing Snow 2 98.8 -11 77 -14 -22
0:30 WNW 25 gust 36 Light Snow 1 98.4 -11 80 -13 -22
04 February 2023
23:30 NW 10 Light Snow 3 98.1 -14 84 -16 -23
22:30 WNW 4 Light Snow 2 98.0 -18 79 -20 -24
21:30 WNW 9 gust 16 Cloudy 16 97.8 -19 69 -23 -28
20:30 NW 11 Cloudy 16 97.6 -20 69 -25 -31
19:30 WNW 5 Haze 6 97.3 -22 73 -26 -29

Zoom-in to make a selection

Map of Atlantic - Labrador marine weather areas Kangiqsualujjuaq Airport Cape Kakkiviak Cape Kiglapait Cartwright Airport CFB Goose Bay Hopedale Mary's Harbour Nain Airport Makkovik Airport Saglek Tukialik Bay
Legend:
buoy Buoy
land station Land Station

Atlantic - Labrador Area

Another Region

What we are doing

Date modified: